5IS6 weather

Webster Heliport
Toulon, Illinois, United States

Public forecast

Using degrees Fahrenheit for public forecast. Weather courtesy of forecast.io.

METAR (pilot weather report)

Closest report is Marshall County Airport, 21.1 nm (39.1 km) ESE. Retrieved 2019/06/25 10:35 UTC (18 minutes ago):

KC75 251035Z AUTO 21004KT 10SM CLR 17/15 A2986 RMK AO2 T01720148

TAF (pilot weather forecast)

Closest forecast is General Wayne A. Downing Peoria International Airport, 27.3 nm (50.6 km) SSE. Retrieved 2019/06/25 06:22 UTC (5 hours ago):

TAF KPIA 250520Z 2506/2606 24007KT P6SM SKC FM251500 22012KT P6SM SKC FM251800 22012G20KT P6SM SKC FM260000 22008KT P6SM BKN070 WS020/24045KT PROB30 2600/2603 4SM -TSRA BKN050CB FM260300 21008KT P6SM BKN100